sensor_id;sensor_type;location;lat;lon;timestamp;P1;durP1;ratioP1;P2;durP2;ratioP2
19032;SDS011;9649;51.042;13.804;2023-12-14T00:01:01;35.60;;;16.57;;
19032;SDS011;9649;51.042;13.804;2023-12-14T00:06:04;32.53;;;15.70;;
19032;SDS011;9649;51.042;13.804;2023-12-14T00:11:09;33.97;;;15.33;;
19032;SDS011;9649;51.042;13.804;2023-12-14T00:16:13;33.87;;;15.27;;
19032;SDS011;9649;51.042;13.804;2023-12-14T00:21:16;32.50;;;15.83;;
19032;SDS011;9649;51.042;13.804;2023-12-14T00:26:20;33.17;;;15.87;;
19032;SDS011;9649;51.042;13.804;2023-12-14T00:31:23;38.83;;;15.83;;
19032;SDS011;9649;51.042;13.804;2023-12-14T00:36:26;35.87;;;15.97;;
19032;SDS011;9649;51.042;13.804;2023-12-14T00:41:31;37.37;;;16.90;;
19032;SDS011;9649;51.042;13.804;2023-12-14T00:46:33;34.90;;;16.27;;
19032;SDS011;9649;51.042;13.804;2023-12-14T00:51:36;29.03;;;14.83;;
19032;SDS011;9649;51.042;13.804;2023-12-14T00:56:41;38.47;;;18.03;;
19032;SDS011;9649;51.042;13.804;2023-12-14T01:01:44;38.90;;;17.53;;
19032;SDS011;9649;51.042;13.804;2023-12-14T01:06:46;37.43;;;17.63;;
19032;SDS011;9649;51.042;13.804;2023-12-14T01:11:50;39.53;;;17.63;;
19032;SDS011;9649;51.042;13.804;2023-12-14T01:16:53;35.93;;;17.17;;
19032;SDS011;9649;51.042;13.804;2023-12-14T01:21:56;34.10;;;17.20;;
19032;SDS011;9649;51.042;13.804;2023-12-14T01:27:00;35.80;;;16.80;;
19032;SDS011;9649;51.042;13.804;2023-12-14T01:32:03;35.57;;;17.07;;
19032;SDS011;9649;51.042;13.804;2023-12-14T01:37:06;35.60;;;17.10;;
19032;SDS011;9649;51.042;13.804;2023-12-14T01:42:10;38.50;;;16.97;;
19032;SDS011;9649;51.042;13.804;2023-12-14T01:47:13;34.83;;;16.83;;
19032;SDS011;9649;51.042;13.804;2023-12-14T01:52:16;39.13;;;17.63;;
19032;SDS011;9649;51.042;13.804;2023-12-14T01:57:20;33.90;;;16.87;;
19032;SDS011;9649;51.042;13.804;2023-12-14T02:02:23;30.67;;;15.83;;
19032;SDS011;9649;51.042;13.804;2023-12-14T02:07:26;32.40;;;16.00;;
19032;SDS011;9649;51.042;13.804;2023-12-14T02:12:30;32.03;;;15.87;;
19032;SDS011;9649;51.042;13.804;2023-12-14T02:17:35;34.63;;;17.20;;
19032;SDS011;9649;51.042;13.804;2023-12-14T02:22:49;34.17;;;16.33;;
19032;SDS011;9649;51.042;13.804;2023-12-14T02:27:52;35.33;;;16.87;;
19032;SDS011;9649;51.042;13.804;2023-12-14T02:32:55;35.87;;;17.00;;
19032;SDS011;9649;51.042;13.804;2023-12-14T02:37:59;31.10;;;15.23;;
19032;SDS011;9649;51.042;13.804;2023-12-14T02:43:02;33.73;;;15.97;;
19032;SDS011;9649;51.042;13.804;2023-12-14T02:48:04;33.83;;;15.33;;
19032;SDS011;9649;51.042;13.804;2023-12-14T02:53:09;30.70;;;15.37;;
19032;SDS011;9649;51.042;13.804;2023-12-14T02:58:11;33.17;;;15.50;;
19032;SDS011;9649;51.042;13.804;2023-12-14T03:03:14;32.60;;;14.97;;
19032;SDS011;9649;51.042;13.804;2023-12-14T03:08:19;27.20;;;13.97;;
19032;SDS011;9649;51.042;13.804;2023-12-14T03:13:21;32.53;;;15.10;;
19032;SDS011;9649;51.042;13.804;2023-12-14T03:18:24;34.23;;;15.77;;
19032;SDS011;9649;51.042;13.804;2023-12-14T03:23:28;30.07;;;14.80;;
19032;SDS011;9649;51.042;13.804;2023-12-14T03:28:31;34.63;;;15.93;;
19032;SDS011;9649;51.042;13.804;2023-12-14T03:33:34;32.90;;;16.03;;
19032;SDS011;9649;51.042;13.804;2023-12-14T03:38:38;30.37;;;15.80;;
19032;SDS011;9649;51.042;13.804;2023-12-14T03:43:41;30.67;;;15.73;;
19032;SDS011;9649;51.042;13.804;2023-12-14T03:48:44;31.00;;;14.77;;
19032;SDS011;9649;51.042;13.804;2023-12-14T03:53:48;32.30;;;15.57;;
19032;SDS011;9649;51.042;13.804;2023-12-14T03:58:50;30.80;;;15.30;;
19032;SDS011;9649;51.042;13.804;2023-12-14T04:03:53;25.37;;;13.83;;
19032;SDS011;9649;51.042;13.804;2023-12-14T04:08:57;29.07;;;13.77;;
19032;SDS011;9649;51.042;13.804;2023-12-14T04:14:00;28.07;;;14.00;;
19032;SDS011;9649;51.042;13.804;2023-12-14T04:19:03;32.20;;;15.37;;
19032;SDS011;9649;51.042;13.804;2023-12-14T04:24:12;27.33;;;14.23;;
19032;SDS011;9649;51.042;13.804;2023-12-14T04:29:15;30.07;;;15.30;;
19032;SDS011;9649;51.042;13.804;2023-12-14T04:34:18;26.67;;;13.90;;
19032;SDS011;9649;51.042;13.804;2023-12-14T04:39:22;27.33;;;14.23;;
19032;SDS011;9649;51.042;13.804;2023-12-14T04:44:25;27.40;;;14.80;;
19032;SDS011;9649;51.042;13.804;2023-12-14T04:49:28;26.60;;;13.77;;
19032;SDS011;9649;51.042;13.804;2023-12-14T04:54:32;36.70;;;17.03;;
19032;SDS011;9649;51.042;13.804;2023-12-14T04:59:37;29.00;;;14.70;;
19032;SDS011;9649;51.042;13.804;2023-12-14T05:04:39;26.53;;;13.63;;
19032;SDS011;9649;51.042;13.804;2023-12-14T05:09:43;26.77;;;13.90;;
19032;SDS011;9649;51.042;13.804;2023-12-14T05:14:46;30.63;;;14.60;;
19032;SDS011;9649;51.042;13.804;2023-12-14T05:19:49;37.07;;;16.33;;
19032;SDS011;9649;51.042;13.804;2023-12-14T05:24:53;37.33;;;16.27;;
19032;SDS011;9649;51.042;13.804;2023-12-14T05:29:56;40.77;;;17.40;;
19032;SDS011;9649;51.042;13.804;2023-12-14T05:34:59;43.27;;;17.37;;
19032;SDS011;9649;51.042;13.804;2023-12-14T05:40:04;49.37;;;19.40;;
19032;SDS011;9649;51.042;13.804;2023-12-14T05:45:08;56.40;;;19.60;;
19032;SDS011;9649;51.042;13.804;2023-12-14T05:50:13;55.60;;;21.30;;
19032;SDS011;9649;51.042;13.804;2023-12-14T05:55:17;51.10;;;20.00;;
19032;SDS011;9649;51.042;13.804;2023-12-14T06:00:22;72.53;;;20.07;;
19032;SDS011;9649;51.042;13.804;2023-12-14T06:05:25;56.30;;;18.53;;
19032;SDS011;9649;51.042;13.804;2023-12-14T06:10:29;61.00;;;18.73;;
19032;SDS011;9649;51.042;13.804;2023-12-14T06:15:33;54.53;;;19.27;;
19032;SDS011;9649;51.042;13.804;2023-12-14T06:20:36;50.63;;;17.37;;
19032;SDS011;9649;51.042;13.804;2023-12-14T06:25:40;37.30;;;14.57;;
19032;SDS011;9649;51.042;13.804;2023-12-14T06:30:43;40.73;;;14.90;;
19032;SDS011;9649;51.042;13.804;2023-12-14T06:35:45;34.73;;;14.43;;
19032;SDS011;9649;51.042;13.804;2023-12-14T06:40:49;33.20;;;13.10;;
19032;SDS011;9649;51.042;13.804;2023-12-14T06:45:52;26.47;;;11.60;;
19032;SDS011;9649;51.042;13.804;2023-12-14T06:50:55;27.07;;;11.80;;
19032;SDS011;9649;51.042;13.804;2023-12-14T06:55:59;22.97;;;11.13;;
19032;SDS011;9649;51.042;13.804;2023-12-14T07:01:02;23.27;;;11.13;;
19032;SDS011;9649;51.042;13.804;2023-12-14T07:06:06;25.80;;;11.17;;
19032;SDS011;9649;51.042;13.804;2023-12-14T07:11:11;29.00;;;12.83;;
19032;SDS011;9649;51.042;13.804;2023-12-14T07:16:14;34.87;;;13.93;;
19032;SDS011;9649;51.042;13.804;2023-12-14T07:21:18;32.90;;;12.83;;
19032;SDS011;9649;51.042;13.804;2023-12-14T07:26:22;27.53;;;13.00;;
19032;SDS011;9649;51.042;13.804;2023-12-14T07:31:25;32.03;;;13.73;;
19032;SDS011;9649;51.042;13.804;2023-12-14T07:36:30;37.73;;;15.33;;
19032;SDS011;9649;51.042;13.804;2023-12-14T07:41:34;33.60;;;14.47;;
19032;SDS011;9649;51.042;13.804;2023-12-14T07:46:37;31.87;;;14.33;;
19032;SDS011;9649;51.042;13.804;2023-12-14T07:51:42;36.50;;;14.90;;
19032;SDS011;9649;51.042;13.804;2023-12-14T07:56:46;30.33;;;14.33;;
19032;SDS011;9649;51.042;13.804;2023-12-14T08:01:49;30.17;;;13.83;;
19032;SDS011;9649;51.042;13.804;2023-12-14T08:06:52;29.93;;;13.07;;
19032;SDS011;9649;51.042;13.804;2023-12-14T08:11:56;29.40;;;13.23;;
19032;SDS011;9649;51.042;13.804;2023-12-14T08:17:02;27.50;;;13.20;;
19032;SDS011;9649;51.042;13.804;2023-12-14T08:22:06;25.13;;;12.33;;
19032;SDS011;9649;51.042;13.804;2023-12-14T08:27:13;20.77;;;9.60;;
19032;SDS011;9649;51.042;13.804;2023-12-14T08:32:16;16.60;;;8.77;;
19032;SDS011;9649;51.042;13.804;2023-12-14T08:37:19;16.00;;;7.33;;
19032;SDS011;9649;51.042;13.804;2023-12-14T08:42:23;16.23;;;7.80;;
19032;SDS011;9649;51.042;13.804;2023-12-14T08:47:25;12.70;;;7.57;;
19032;SDS011;9649;51.042;13.804;2023-12-14T08:52:28;15.33;;;7.70;;
19032;SDS011;9649;51.042;13.804;2023-12-14T08:57:32;15.50;;;7.47;;
19032;SDS011;9649;51.042;13.804;2023-12-14T09:02:35;15.20;;;6.90;;
19032;SDS011;9649;51.042;13.804;2023-12-14T09:07:39;15.23;;;7.30;;
19032;SDS011;9649;51.042;13.804;2023-12-14T09:12:43;10.37;;;5.70;;
19032;SDS011;9649;51.042;13.804;2023-12-14T09:17:46;11.23;;;5.73;;
19032;SDS011;9649;51.042;13.804;2023-12-14T09:22:48;12.00;;;6.20;;
19032;SDS011;9649;51.042;13.804;2023-12-14T09:27:52;9.70;;;5.30;;
19032;SDS011;9649;51.042;13.804;2023-12-14T09:32:55;8.10;;;4.80;;
19032;SDS011;9649;51.042;13.804;2023-12-14T09:37:58;7.67;;;4.63;;
19032;SDS011;9649;51.042;13.804;2023-12-14T09:43:03;8.10;;;4.40;;
19032;SDS011;9649;51.042;13.804;2023-12-14T09:48:09;6.97;;;3.90;;
19032;SDS011;9649;51.042;13.804;2023-12-14T09:53:13;6.67;;;3.50;;
19032;SDS011;9649;51.042;13.804;2023-12-14T09:58:17;4.67;;;2.90;;
19032;SDS011;9649;51.042;13.804;2023-12-14T10:03:21;4.13;;;2.80;;
19032;SDS011;9649;51.042;13.804;2023-12-14T10:08:27;3.70;;;2.37;;
19032;SDS011;9649;51.042;13.804;2023-12-14T10:13:38;4.77;;;2.80;;
19032;SDS011;9649;51.042;13.804;2023-12-14T10:18:41;5.10;;;3.00;;
19032;SDS011;9649;51.042;13.804;2023-12-14T10:23:44;4.13;;;3.00;;
19032;SDS011;9649;51.042;13.804;2023-12-14T10:28:49;4.37;;;3.03;;
19032;SDS011;9649;51.042;13.804;2023-12-14T10:33:52;4.83;;;3.17;;
19032;SDS011;9649;51.042;13.804;2023-12-14T10:38:56;4.77;;;3.00;;
19032;SDS011;9649;51.042;13.804;2023-12-14T10:44:01;5.60;;;3.10;;
19032;SDS011;9649;51.042;13.804;2023-12-14T10:49:25;6.33;;;4.20;;
19032;SDS011;9649;51.042;13.804;2023-12-14T10:54:28;6.83;;;4.80;;
19032;SDS011;9649;51.042;13.804;2023-12-14T10:59:35;9.63;;;5.27;;
19032;SDS011;9649;51.042;13.804;2023-12-14T11:04:53;13.63;;;5.90;;
19032;SDS011;9649;51.042;13.804;2023-12-14T11:09:57;11.03;;;5.93;;
19032;SDS011;9649;51.042;13.804;2023-12-14T11:15:04;11.93;;;6.87;;
19032;SDS011;9649;51.042;13.804;2023-12-14T11:25:26;10.03;;;6.10;;
19032;SDS011;9649;51.042;13.804;2023-12-14T11:30:44;9.33;;;5.80;;
19032;SDS011;9649;51.042;13.804;2023-12-14T11:36:01;9.13;;;5.90;;
19032;SDS011;9649;51.042;13.804;2023-12-14T11:41:05;11.60;;;6.23;;
19032;SDS011;9649;51.042;13.804;2023-12-14T11:46:10;8.93;;;6.00;;
19032;SDS011;9649;51.042;13.804;2023-12-14T11:51:13;8.83;;;6.00;;
19032;SDS011;9649;51.042;13.804;2023-12-14T11:56:17;11.10;;;6.10;;
19032;SDS011;9649;51.042;13.804;2023-12-14T12:01:21;10.33;;;6.47;;
19032;SDS011;9649;51.042;13.804;2023-12-14T12:06:26;11.10;;;6.53;;
19032;SDS011;9649;51.042;13.804;2023-12-14T12:11:29;11.73;;;7.00;;
19032;SDS011;9649;51.042;13.804;2023-12-14T12:16:34;12.03;;;6.90;;
19032;SDS011;9649;51.042;13.804;2023-12-14T12:21:37;13.07;;;7.40;;
19032;SDS011;9649;51.042;13.804;2023-12-14T12:26:40;14.40;;;7.37;;
19032;SDS011;9649;51.042;13.804;2023-12-14T12:31:44;11.27;;;6.33;;
19032;SDS011;9649;51.042;13.804;2023-12-14T12:36:47;11.73;;;6.53;;
19032;SDS011;9649;51.042;13.804;2023-12-14T12:41:50;15.73;;;7.40;;
19032;SDS011;9649;51.042;13.804;2023-12-14T12:46:54;15.60;;;8.00;;
19032;SDS011;9649;51.042;13.804;2023-12-14T12:52:11;13.40;;;7.30;;
19032;SDS011;9649;51.042;13.804;2023-12-14T12:57:14;13.07;;;7.30;;
19032;SDS011;9649;51.042;13.804;2023-12-14T13:02:18;13.30;;;7.20;;
19032;SDS011;9649;51.042;13.804;2023-12-14T13:07:21;15.80;;;7.97;;
19032;SDS011;9649;51.042;13.804;2023-12-14T13:12:24;14.43;;;8.17;;
19032;SDS011;9649;51.042;13.804;2023-12-14T13:17:28;16.57;;;8.20;;
19032;SDS011;9649;51.042;13.804;2023-12-14T13:22:31;13.97;;;7.37;;
19032;SDS011;9649;51.042;13.804;2023-12-14T13:27:34;14.73;;;8.20;;
19032;SDS011;9649;51.042;13.804;2023-12-14T13:32:39;15.00;;;8.00;;
19032;SDS011;9649;51.042;13.804;2023-12-14T13:37:42;15.17;;;8.63;;
19032;SDS011;9649;51.042;13.804;2023-12-14T13:42:45;15.17;;;8.70;;
19032;SDS011;9649;51.042;13.804;2023-12-14T13:48:05;13.30;;;7.73;;
19032;SDS011;9649;51.042;13.804;2023-12-14T13:53:08;14.13;;;8.10;;
19032;SDS011;9649;51.042;13.804;2023-12-14T13:58:11;16.97;;;8.67;;
19032;SDS011;9649;51.042;13.804;2023-12-14T14:03:16;16.17;;;8.70;;
19032;SDS011;9649;51.042;13.804;2023-12-14T14:08:18;17.97;;;9.80;;
19032;SDS011;9649;51.042;13.804;2023-12-14T14:13:22;17.23;;;9.40;;
19032;SDS011;9649;51.042;13.804;2023-12-14T14:18:26;15.37;;;8.17;;
19032;SDS011;9649;51.042;13.804;2023-12-14T14:23:29;13.20;;;7.90;;
19032;SDS011;9649;51.042;13.804;2023-12-14T14:28:32;12.50;;;6.70;;
19032;SDS011;9649;51.042;13.804;2023-12-14T14:33:37;12.23;;;7.03;;
19032;SDS011;9649;51.042;13.804;2023-12-14T14:38:40;9.87;;;6.50;;
19032;SDS011;9649;51.042;13.804;2023-12-14T14:43:42;10.30;;;5.97;;
19032;SDS011;9649;51.042;13.804;2023-12-14T14:48:47;10.73;;;6.03;;
19032;SDS011;9649;51.042;13.804;2023-12-14T14:53:49;9.03;;;5.90;;
19032;SDS011;9649;51.042;13.804;2023-12-14T14:58:55;9.67;;;5.37;;
19032;SDS011;9649;51.042;13.804;2023-12-14T15:03:59;8.90;;;5.33;;
19032;SDS011;9649;51.042;13.804;2023-12-14T15:09:02;8.83;;;5.33;;
19032;SDS011;9649;51.042;13.804;2023-12-14T15:14:10;9.27;;;5.83;;
19032;SDS011;9649;51.042;13.804;2023-12-14T15:19:14;9.10;;;6.10;;
19032;SDS011;9649;51.042;13.804;2023-12-14T15:24:16;9.27;;;5.77;;
19032;SDS011;9649;51.042;13.804;2023-12-14T15:29:19;9.57;;;6.00;;
19032;SDS011;9649;51.042;13.804;2023-12-14T15:34:23;10.60;;;6.50;;
19032;SDS011;9649;51.042;13.804;2023-12-14T15:39:26;14.20;;;8.80;;
19032;SDS011;9649;51.042;13.804;2023-12-14T15:44:30;14.53;;;8.10;;
19032;SDS011;9649;51.042;13.804;2023-12-14T15:49:34;11.63;;;6.53;;
19032;SDS011;9649;51.042;13.804;2023-12-14T15:54:37;10.73;;;5.80;;
19032;SDS011;9649;51.042;13.804;2023-12-14T15:59:40;10.67;;;5.83;;
19032;SDS011;9649;51.042;13.804;2023-12-14T16:04:44;10.77;;;6.40;;
19032;SDS011;9649;51.042;13.804;2023-12-14T16:09:47;6.57;;;3.80;;
19032;SDS011;9649;51.042;13.804;2023-12-14T16:14:50;5.27;;;3.67;;
19032;SDS011;9649;51.042;13.804;2023-12-14T16:19:58;6.60;;;3.47;;
19032;SDS011;9649;51.042;13.804;2023-12-14T16:25:01;3.47;;;2.97;;
19032;SDS011;9649;51.042;13.804;2023-12-14T16:30:04;5.00;;;3.10;;
19032;SDS011;9649;51.042;13.804;2023-12-14T16:35:09;6.47;;;3.60;;
19032;SDS011;9649;51.042;13.804;2023-12-14T16:40:15;5.63;;;3.70;;
19032;SDS011;9649;51.042;13.804;2023-12-14T16:45:18;6.53;;;4.17;;
19032;SDS011;9649;51.042;13.804;2023-12-14T16:50:23;8.13;;;4.23;;
19032;SDS011;9649;51.042;13.804;2023-12-14T16:55:25;7.60;;;4.03;;
19032;SDS011;9649;51.042;13.804;2023-12-14T17:00:29;6.90;;;4.33;;
19032;SDS011;9649;51.042;13.804;2023-12-14T17:05:33;5.40;;;3.43;;
19032;SDS011;9649;51.042;13.804;2023-12-14T17:10:36;5.77;;;3.70;;
19032;SDS011;9649;51.042;13.804;2023-12-14T17:15:38;9.93;;;3.83;;
19032;SDS011;9649;51.042;13.804;2023-12-14T17:20:42;7.97;;;5.03;;
19032;SDS011;9649;51.042;13.804;2023-12-14T17:25:45;7.97;;;4.73;;
19032;SDS011;9649;51.042;13.804;2023-12-14T17:30:48;9.90;;;4.90;;
19032;SDS011;9649;51.042;13.804;2023-12-14T17:35:52;7.17;;;4.67;;
19032;SDS011;9649;51.042;13.804;2023-12-14T17:40:55;8.97;;;5.17;;
19032;SDS011;9649;51.042;13.804;2023-12-14T17:45:59;8.67;;;5.10;;
19032;SDS011;9649;51.042;13.804;2023-12-14T17:51:03;8.07;;;4.87;;
19032;SDS011;9649;51.042;13.804;2023-12-14T17:56:06;7.20;;;4.40;;
19032;SDS011;9649;51.042;13.804;2023-12-14T18:01:10;6.43;;;4.20;;
19032;SDS011;9649;51.042;13.804;2023-12-14T18:06:15;7.00;;;4.63;;
19032;SDS011;9649;51.042;13.804;2023-12-14T18:11:18;8.27;;;4.57;;
19032;SDS011;9649;51.042;13.804;2023-12-14T18:16:21;7.63;;;3.97;;
19032;SDS011;9649;51.042;13.804;2023-12-14T18:21:25;8.03;;;4.13;;
19032;SDS011;9649;51.042;13.804;2023-12-14T18:26:29;6.60;;;4.37;;
19032;SDS011;9649;51.042;13.804;2023-12-14T18:31:32;6.80;;;4.53;;
19032;SDS011;9649;51.042;13.804;2023-12-14T18:36:37;8.67;;;4.53;;
19032;SDS011;9649;51.042;13.804;2023-12-14T18:41:40;8.13;;;4.90;;
19032;SDS011;9649;51.042;13.804;2023-12-14T18:46:42;10.63;;;5.67;;
19032;SDS011;9649;51.042;13.804;2023-12-14T18:51:47;11.20;;;5.47;;
19032;SDS011;9649;51.042;13.804;2023-12-14T18:56:50;10.93;;;5.90;;
19032;SDS011;9649;51.042;13.804;2023-12-14T19:01:52;9.93;;;5.70;;
19032;SDS011;9649;51.042;13.804;2023-12-14T19:06:56;11.73;;;6.10;;
19032;SDS011;9649;51.042;13.804;2023-12-14T19:11:59;9.97;;;5.67;;
19032;SDS011;9649;51.042;13.804;2023-12-14T19:17:02;9.67;;;5.73;;
19032;SDS011;9649;51.042;13.804;2023-12-14T19:22:06;10.00;;;5.97;;
19032;SDS011;9649;51.042;13.804;2023-12-14T19:27:09;10.37;;;6.07;;
19032;SDS011;9649;51.042;13.804;2023-12-14T19:32:13;11.67;;;6.03;;
19032;SDS011;9649;51.042;13.804;2023-12-14T19:37:17;10.27;;;6.20;;
19032;SDS011;9649;51.042;13.804;2023-12-14T19:42:20;10.10;;;5.50;;
19032;SDS011;9649;51.042;13.804;2023-12-14T19:47:23;9.93;;;6.00;;
19032;SDS011;9649;51.042;13.804;2023-12-14T19:52:27;9.37;;;5.17;;
19032;SDS011;9649;51.042;13.804;2023-12-14T19:57:30;9.60;;;5.30;;
19032;SDS011;9649;51.042;13.804;2023-12-14T20:02:33;11.43;;;5.40;;
19032;SDS011;9649;51.042;13.804;2023-12-14T20:07:37;13.57;;;6.10;;
19032;SDS011;9649;51.042;13.804;2023-12-14T20:12:40;14.03;;;7.07;;
19032;SDS011;9649;51.042;13.804;2023-12-14T20:17:43;12.43;;;6.60;;
19032;SDS011;9649;51.042;13.804;2023-12-14T20:22:47;14.93;;;7.17;;
19032;SDS011;9649;51.042;13.804;2023-12-14T20:27:50;15.73;;;7.20;;
19032;SDS011;9649;51.042;13.804;2023-12-14T20:32:54;12.47;;;6.83;;
19032;SDS011;9649;51.042;13.804;2023-12-14T20:37:58;13.03;;;6.80;;
19032;SDS011;9649;51.042;13.804;2023-12-14T20:43:04;10.83;;;6.10;;
19032;SDS011;9649;51.042;13.804;2023-12-14T20:48:07;15.17;;;6.93;;
19032;SDS011;9649;51.042;13.804;2023-12-14T20:53:12;11.77;;;6.90;;
19032;SDS011;9649;51.042;13.804;2023-12-14T20:58:15;14.60;;;6.43;;
19032;SDS011;9649;51.042;13.804;2023-12-14T21:03:17;10.90;;;6.00;;
19032;SDS011;9649;51.042;13.804;2023-12-14T21:08:22;15.17;;;6.90;;
19032;SDS011;9649;51.042;13.804;2023-12-14T21:13:24;14.17;;;6.70;;
19032;SDS011;9649;51.042;13.804;2023-12-14T21:18:28;12.03;;;6.30;;
19032;SDS011;9649;51.042;13.804;2023-12-14T21:23:33;13.20;;;6.40;;
19032;SDS011;9649;51.042;13.804;2023-12-14T21:28:36;13.70;;;6.30;;
19032;SDS011;9649;51.042;13.804;2023-12-14T21:33:38;13.13;;;6.70;;
19032;SDS011;9649;51.042;13.804;2023-12-14T21:38:42;14.33;;;6.43;;
19032;SDS011;9649;51.042;13.804;2023-12-14T21:43:45;12.20;;;6.50;;
19032;SDS011;9649;51.042;13.804;2023-12-14T21:48:48;14.97;;;7.00;;
19032;SDS011;9649;51.042;13.804;2023-12-14T21:53:52;14.90;;;6.60;;
19032;SDS011;9649;51.042;13.804;2023-12-14T21:58:55;12.53;;;6.57;;
19032;SDS011;9649;51.042;13.804;2023-12-14T22:03:58;15.90;;;7.33;;
19032;SDS011;9649;51.042;13.804;2023-12-14T22:09:04;12.60;;;7.10;;
19032;SDS011;9649;51.042;13.804;2023-12-14T22:14:07;14.23;;;7.20;;
19032;SDS011;9649;51.042;13.804;2023-12-14T22:19:11;12.07;;;6.73;;
19032;SDS011;9649;51.042;13.804;2023-12-14T22:24:15;13.57;;;7.23;;
19032;SDS011;9649;51.042;13.804;2023-12-14T22:29:18;16.47;;;8.03;;
19032;SDS011;9649;51.042;13.804;2023-12-14T22:34:20;15.80;;;7.90;;
19032;SDS011;9649;51.042;13.804;2023-12-14T22:39:24;13.27;;;7.57;;
19032;SDS011;9649;51.042;13.804;2023-12-14T22:44:27;17.90;;;8.27;;
19032;SDS011;9649;51.042;13.804;2023-12-14T22:49:30;13.77;;;7.23;;
19032;SDS011;9649;51.042;13.804;2023-12-14T22:54:34;15.07;;;7.27;;
19032;SDS011;9649;51.042;13.804;2023-12-14T22:59:40;14.53;;;7.57;;
19032;SDS011;9649;51.042;13.804;2023-12-14T23:04:43;14.13;;;7.47;;
19032;SDS011;9649;51.042;13.804;2023-12-14T23:09:47;14.30;;;7.27;;
19032;SDS011;9649;51.042;13.804;2023-12-14T23:14:49;14.70;;;7.53;;
19032;SDS011;9649;51.042;13.804;2023-12-14T23:19:52;15.43;;;7.63;;
19032;SDS011;9649;51.042;13.804;2023-12-14T23:24:56;15.07;;;7.53;;
19032;SDS011;9649;51.042;13.804;2023-12-14T23:29:59;11.97;;;6.73;;
19032;SDS011;9649;51.042;13.804;2023-12-14T23:35:01;13.70;;;7.40;;
19032;SDS011;9649;51.042;13.804;2023-12-14T23:40:06;13.70;;;7.63;;
19032;SDS011;9649;51.042;13.804;2023-12-14T23:45:09;16.40;;;7.37;;
19032;SDS011;9649;51.042;13.804;2023-12-14T23:50:13;14.23;;;7.13;;
19032;SDS011;9649;51.042;13.804;2023-12-14T23:55:17;14.87;;;7.27;;
